Time;durP1;ratioP1;P1;durP2;ratioP2;P2;SDS_P1;SDS_P2;PMS_P1;PMS_P2;Temp;Humidity;BMP_temperature;BMP_pressure;BME280_temperature;BME280_humidity;BME280_pressure;Samples;Min_cycle;Max_cycle;Signal;HPM_P1;HPM_P2
2022/04/08 00:02:25;;;;;;;3.23;1.80;;;11.00;84.00;;;;;;6183049;23;20409;-89
2022/04/08 00:04:51;;;;;;;3.23;1.30;;;11.00;84.40;;;;;;6191494;23;20390;-89
2022/04/08 00:07:18;;;;;;;5.80;1.97;;;11.00;84.30;;;;;;6187836;23;20417;-89
2022/04/08 00:09:45;;;;;;;5.47;1.97;;;11.00;84.50;;;;;;6206410;23;20425;-89
2022/04/08 00:12:12;;;;;;;5.90;2.00;;;11.00;85.30;;;;;;6214181;23;20470;-88
2022/04/08 00:14:40;;;;;;;4.70;1.67;;;11.00;85.40;;;;;;6213655;23;20401;-89
2022/04/08 00:17:07;;;;;;;3.93;1.80;;;11.00;85.60;;;;;;6192958;23;20492;-89
2022/04/08 00:19:33;;;;;;;7.27;2.00;;;11.00;85.40;;;;;;6185660;23;20952;-89
2022/04/08 00:22:01;;;;;;;1.73;1.40;;;11.00;85.10;;;;;;6185778;23;20416;-89
2022/04/08 00:24:27;;;;;;;5.40;1.80;;;11.00;84.80;;;;;;6210086;23;20401;-89
2022/04/08 00:26:54;;;;;;;5.10;1.90;;;11.00;84.00;;;;;;6212571;23;20413;-89
2022/04/08 00:29:21;;;;;;;5.50;1.33;;;11.00;84.00;;;;;;6195068;23;20422;-88
2022/04/08 00:31:50;;;;;;;5.30;1.40;;;11.00;83.90;;;;;;6186666;23;20410;-89
2022/04/08 00:34:16;;;;;;;6.40;1.77;;;11.00;82.80;;;;;;6186322;23;20410;-89
2022/04/08 00:36:43;;;;;;;4.80;1.60;;;11.00;81.80;;;;;;6185099;23;20975;-90
2022/04/08 00:39:11;;;;;;;3.50;1.60;;;11.00;81.10;;;;;;6185169;23;20763;-90
2022/04/08 00:41:38;;;;;;;3.13;1.47;;;11.00;81.00;;;;;;6191591;23;20401;-89
2022/04/08 00:44:05;;;;;;;3.43;1.27;;;11.00;80.40;;;;;;6184949;23;20405;-89
2022/04/08 00:46:32;;;;;;;6.70;1.80;;;11.00;80.50;;;;;;6187787;23;20410;-89
2022/04/08 00:49:02;;;;;;;5.07;1.47;;;11.00;80.60;;;;;;6206755;23;20401;-89
2022/04/08 00:51:29;;;;;;;3.57;1.93;;;11.00;80.70;;;;;;6208852;23;20459;-89
2022/04/08 00:53:56;;;;;;;6.90;1.60;;;11.00;81.30;;;;;;6191758;23;20397;-90
2022/04/08 00:56:23;;;;;;;5.30;2.20;;;10.90;81.70;;;;;;6189986;23;20438;-89
2022/04/08 00:58:50;;;;;;;3.10;1.97;;;10.90;82.20;;;;;;6185690;23;20410;-89
2022/04/08 01:01:17;;;;;;;5.50;1.83;;;10.90;82.40;;;;;;6185175;23;20433;-89
2022/04/08 01:03:44;;;;;;;3.77;1.73;;;10.90;82.30;;;;;;6185371;23;20414;-89
2022/04/08 01:06:12;;;;;;;7.00;2.20;;;10.90;82.80;;;;;;6185271;23;20406;-89
2022/04/08 01:08:39;;;;;;;7.40;2.13;;;10.90;82.80;;;;;;6185179;23;20411;-89
2022/04/08 01:11:06;;;;;;;6.03;1.40;;;10.90;83.20;;;;;;6184648;23;20435;-89
2022/04/08 01:13:35;;;;;;;9.23;3.20;;;10.90;83.30;;;;;;6184906;23;20628;-89
2022/04/08 01:16:01;;;;;;;5.23;2.23;;;10.90;83.70;;;;;;6184539;23;20415;-88
2022/04/08 01:18:28;;;;;;;3.27;1.47;;;10.80;83.90;;;;;;6184574;23;20418;-89
2022/04/08 01:20:55;;;;;;;2.80;1.70;;;10.80;84.40;;;;;;6192153;23;20430;-89
2022/04/08 01:23:24;;;;;;;3.93;1.50;;;10.80;83.90;;;;;;6191410;23;20484;-89
2022/04/08 01:25:52;;;;;;;2.20;1.30;;;10.80;83.70;;;;;;6187645;23;20404;-89
2022/04/08 01:28:18;;;;;;;5.50;1.70;;;10.80;83.80;;;;;;6213929;23;20457;-89
2022/04/08 01:30:45;;;;;;;4.57;1.60;;;10.70;83.60;;;;;;6204275;23;21107;-89
2022/04/08 01:33:12;;;;;;;4.70;1.60;;;10.80;83.00;;;;;;6205641;23;20744;-89
2022/04/08 01:35:38;;;;;;;4.50;1.20;;;10.70;83.20;;;;;;6211938;23;20401;-89
2022/04/08 01:38:05;;;;;;;4.27;1.40;;;10.70;83.10;;;;;;6190033;23;20451;-89
2022/04/08 01:40:33;;;;;;;4.27;1.37;;;10.60;82.70;;;;;;6187347;23;20445;-89
2022/04/08 01:43:01;;;;;;;4.53;2.70;;;10.60;82.10;;;;;;6186015;23;20475;-89
2022/04/08 01:45:28;;;;;;;2.67;1.30;;;10.60;82.30;;;;;;6185805;23;20416;-89
2022/04/08 01:47:54;;;;;;;6.80;1.70;;;10.60;82.40;;;;;;6185102;23;20402;-89
2022/04/08 01:50:22;;;;;;;8.00;1.53;;;10.60;83.30;;;;;;6186827;23;20426;-88
2022/04/08 01:52:48;;;;;;;5.87;1.80;;;10.50;82.70;;;;;;6191334;23;20413;-88
2022/04/08 01:55:16;;;;;;;4.77;1.83;;;10.50;83.00;;;;;;6199029;23;20406;-88
2022/04/08 01:57:43;;;;;;;4.67;1.53;;;10.50;83.60;;;;;;6188487;23;20445;-89
2022/04/08 02:00:13;;;;;;;4.30;2.23;;;10.40;84.00;;;;;;6186745;23;20433;-89
2022/04/08 02:02:40;;;;;;;5.10;1.43;;;10.40;84.60;;;;;;6187117;23;20464;-90
2022/04/08 02:05:07;;;;;;;3.40;1.10;;;10.30;85.00;;;;;;6196604;23;20393;-89
2022/04/08 02:07:34;;;;;;;9.33;1.70;;;10.30;85.20;;;;;;6187389;23;20410;-89
2022/04/08 02:10:01;;;;;;;5.83;1.73;;;10.30;85.80;;;;;;6186361;23;20433;-89
2022/04/08 02:12:27;;;;;;;5.30;1.60;;;10.20;85.60;;;;;;6186358;23;20409;-89
2022/04/08 02:14:55;;;;;;;5.33;1.67;;;10.20;86.10;;;;;;6190286;23;20409;-89
2022/04/08 02:17:25;;;;;;;8.90;1.70;;;10.20;86.10;;;;;;6188843;23;20500;-89
2022/04/08 02:19:52;;;;;;;5.67;1.50;;;10.20;86.40;;;;;;6186626;23;20440;-89
2022/04/08 02:22:19;;;;;;;4.10;1.50;;;10.10;86.30;;;;;;6186062;23;20424;-89
2022/04/08 02:24:47;;;;;;;6.10;1.47;;;10.10;87.00;;;;;;6189281;23;20493;-89
2022/04/08 02:27:14;;;;;;;4.97;1.47;;;10.10;87.20;;;;;;6191180;23;20405;-89
2022/04/08 02:29:40;;;;;;;4.17;1.90;;;10.10;86.60;;;;;;6186492;23;20418;-89
2022/04/08 02:32:09;;;;;;;5.20;2.77;;;10.10;86.10;;;;;;6189611;23;20404;-89
2022/04/08 02:34:37;;;;;;;4.77;1.97;;;10.10;86.20;;;;;;6205981;23;20381;-89
2022/04/08 02:37:04;;;;;;;5.57;2.07;;;10.10;85.80;;;;;;6215021;23;20675;-88
2022/04/08 02:39:31;;;;;;;3.37;1.70;;;10.10;85.70;;;;;;6209494;23;20441;-88
2022/04/08 02:41:58;;;;;;;2.93;1.87;;;10.10;86.10;;;;;;6203855;23;20450;-88
2022/04/08 02:44:25;;;;;;;6.97;2.23;;;10.10;85.80;;;;;;6189192;23;20410;-88
2022/04/08 02:46:51;;;;;;;3.70;1.37;;;10.10;85.50;;;;;;6195386;23;20406;-88
2022/04/08 02:49:18;;;;;;;3.43;1.27;;;10.10;86.60;;;;;;6212342;23;20406;-87
2022/04/08 02:51:46;;;;;;;4.97;1.60;;;10.10;86.40;;;;;;6198448;23;20460;-88
2022/04/08 02:54:15;;;;;;;3.77;1.53;;;10.20;85.90;;;;;;6213239;23;20404;-87
2022/04/08 02:56:41;;;;;;;6.00;2.33;;;10.20;85.90;;;;;;6213449;23;20425;-89
2022/04/08 02:59:08;;;;;;;7.07;2.60;;;10.20;85.80;;;;;;6203310;23;20398;-88
2022/04/08 03:01:35;;;;;;;2.20;1.30;;;10.20;85.70;;;;;;6193081;23;20433;-88
2022/04/08 03:04:05;;;;;;;6.40;1.90;;;10.20;85.70;;;;;;6186857;23;20919;-88
2022/04/08 03:06:32;;;;;;;6.77;1.77;;;10.20;85.90;;;;;;6187287;23;20482;-88
2022/04/08 03:09:00;;;;;;;4.27;1.73;;;10.20;85.70;;;;;;6188236;23;20403;-88
2022/04/08 03:11:27;;;;;;;4.10;1.43;;;10.20;85.50;;;;;;6197480;23;20408;-89
2022/04/08 03:13:54;;;;;;;5.60;1.77;;;10.20;85.40;;;;;;6215398;23;20442;-88
2022/04/08 03:16:20;;;;;;;3.63;1.53;;;10.20;85.70;;;;;;6214880;23;20440;-89
2022/04/08 03:18:47;;;;;;;4.53;1.60;;;10.20;86.00;;;;;;6215213;23;20497;-88
2022/04/08 03:21:14;;;;;;;5.57;2.07;;;10.10;86.70;;;;;;6214860;23;20436;-89
2022/04/08 03:23:40;;;;;;;5.40;1.83;;;10.10;87.10;;;;;;6209599;23;20406;-88
2022/04/08 03:26:08;;;;;;;3.53;1.53;;;10.10;87.00;;;;;;6198974;23;20413;-88
2022/04/08 03:28:35;;;;;;;4.70;2.10;;;10.10;87.40;;;;;;6214808;23;20390;-88
2022/04/08 03:31:02;;;;;;;3.67;1.80;;;10.10;88.10;;;;;;6214176;23;20420;-88
2022/04/08 03:33:28;;;;;;;3.10;1.30;;;10.10;87.60;;;;;;6214159;23;20397;-88
2022/04/08 03:35:55;;;;;;;7.53;1.73;;;10.00;88.20;;;;;;6204204;23;20460;-88
2022/04/08 03:38:22;;;;;;;3.93;1.47;;;10.00;88.40;;;;;;6204477;23;20445;-88
2022/04/08 03:40:48;;;;;;;3.30;1.40;;;10.00;89.00;;;;;;6204012;23;20433;-88
2022/04/08 03:43:18;;;;;;;2.87;1.30;;;9.90;89.80;;;;;;6191148;23;20397;-88
2022/04/08 03:45:45;;;;;;;5.60;1.67;;;10.00;87.60;;;;;;6195944;23;20478;-88
2022/04/08 03:48:11;;;;;;;5.17;2.43;;;10.00;85.90;;;;;;6189220;23;20920;-88
2022/04/08 03:50:38;;;;;;;9.83;2.17;;;9.90;86.60;;;;;;6188203;23;20421;-88
2022/04/08 03:53:09;;;;;;;6.87;1.80;;;9.90;87.20;;;;;;6192787;23;20406;-88
2022/04/08 03:55:36;;;;;;;3.60;1.40;;;9.90;87.10;;;;;;6190593;23;20390;-89
2022/04/08 03:58:03;;;;;;;5.20;1.40;;;9.90;86.20;;;;;;6194823;23;20473;-88
2022/04/08 04:00:32;;;;;;;3.50;1.77;;;9.90;86.10;;;;;;6199842;23;20497;-88
2022/04/08 04:02:59;;;;;;;5.37;1.60;;;9.90;84.40;;;;;;6187153;23;20414;-88
2022/04/08 04:05:26;;;;;;;4.07;1.60;;;9.90;84.30;;;;;;6189274;23;20418;-88
2022/04/08 04:07:52;;;;;;;11.10;2.00;;;9.90;83.90;;;;;;6186566;23;20405;-89
2022/04/08 04:10:19;;;;;;;6.57;1.73;;;9.90;83.50;;;;;;6186653;23;20440;-88
2022/04/08 04:12:46;;;;;;;5.13;1.90;;;9.90;83.60;;;;;;6210177;23;20394;-89
2022/04/08 04:15:13;;;;;;;5.03;1.87;;;9.90;82.90;;;;;;6209365;23;20417;-88
2022/04/08 04:17:41;;;;;;;4.30;1.83;;;9.90;82.30;;;;;;6199342;23;20490;-88
2022/04/08 04:20:09;;;;;;;8.80;2.30;;;9.90;81.70;;;;;;6212361;23;20422;-89
2022/04/08 04:22:36;;;;;;;6.00;2.57;;;9.90;81.90;;;;;;6204906;23;20412;-89
2022/04/08 04:25:03;;;;;;;4.67;2.00;;;9.90;82.50;;;;;;6194244;23;20401;-89
2022/04/08 04:27:30;;;;;;;4.97;1.70;;;9.90;82.10;;;;;;6196908;23;20410;-88
2022/04/08 04:29:56;;;;;;;4.63;1.90;;;9.90;81.90;;;;;;6187418;23;20436;-89
2022/04/08 04:32:23;;;;;;;6.30;1.80;;;9.90;82.60;;;;;;6189968;23;20402;-88
2022/04/08 04:34:51;;;;;;;4.47;1.53;;;9.80;82.40;;;;;;6195304;23;20901;-90
2022/04/08 04:37:19;;;;;;;8.37;3.13;;;9.80;82.50;;;;;;6185337;23;20418;-87
2022/04/08 04:39:47;;;;;;;5.87;1.53;;;9.80;82.80;;;;;;6185366;23;20446;-89
2022/04/08 04:42:14;;;;;;;4.97;2.37;;;9.80;83.20;;;;;;6200834;23;20418;-88
2022/04/08 04:44:40;;;;;;;4.30;1.80;;;9.80;83.40;;;;;;6210502;23;20412;-88
2022/04/08 04:47:08;;;;;;;10.30;2.20;;;9.80;83.20;;;;;;6195281;23;20401;-90
2022/04/08 04:49:35;;;;;;;2.97;1.70;;;9.80;83.60;;;;;;6185818;23;20433;-89
2022/04/08 04:52:04;;;;;;;6.63;1.50;;;9.80;83.50;;;;;;6185302;23;20418;-88
2022/04/08 04:54:30;;;;;;;7.87;1.80;;;9.80;84.60;;;;;;6200649;23;20393;-89
2022/04/08 04:56:57;;;;;;;12.70;2.67;;;9.80;84.60;;;;;;6212881;23;20477;-89
2022/04/08 04:59:24;;;;;;;8.23;1.90;;;9.80;85.40;;;;;;6204987;23;20484;-88
2022/04/08 05:01:50;;;;;;;8.00;2.80;;;9.70;85.00;;;;;;6189410;23;20410;-88
2022/04/08 05:04:17;;;;;;;3.93;1.60;;;9.80;84.80;;;;;;6194446;23;20783;-90
2022/04/08 05:06:44;;;;;;;4.90;1.77;;;9.70;85.10;;;;;;6212142;23;20413;-89
2022/04/08 05:09:12;;;;;;;5.90;2.33;;;9.70;86.00;;;;;;6193518;23;20433;-89
2022/04/08 05:11:39;;;;;;;8.30;2.40;;;9.70;86.50;;;;;;6189617;23;20366;-90
2022/04/08 05:14:06;;;;;;;4.40;1.67;;;9.70;86.10;;;;;;6188389;23;20416;-89
2022/04/08 05:16:33;;;;;;;5.43;2.50;;;9.90;85.20;;;;;;6189281;23;20405;-89
2022/04/08 05:18:59;;;;;;;7.57;3.70;;;9.90;84.20;;;;;;6189053;23;20468;-89
2022/04/08 05:21:29;;;;;;;11.77;2.63;;;9.90;85.30;;;;;;6188134;23;20771;-89
2022/04/08 05:23:56;;;;;;;7.20;2.00;;;9.90;84.90;;;;;;6186641;23;20434;-88
2022/04/08 05:26:24;;;;;;;5.33;2.27;;;9.90;84.90;;;;;;6185991;23;20670;-88
2022/04/08 05:28:50;;;;;;;5.60;1.90;;;9.90;84.10;;;;;;6184196;23;20405;-88
2022/04/08 05:31:17;;;;;;;4.60;1.90;;;10.00;83.70;;;;;;6207292;23;20378;-88
2022/04/08 05:33:44;;;;;;;8.63;2.30;;;10.00;83.90;;;;;;6210883;23;20398;-89
2022/04/08 05:36:11;;;;;;;6.90;2.70;;;10.00;83.50;;;;;;6188209;23;20408;-90
2022/04/08 05:38:37;;;;;;;4.70;2.20;;;10.10;84.60;;;;;;6188596;23;20457;-89
2022/04/08 05:41:04;;;;;;;5.67;2.50;;;10.10;84.40;;;;;;6188704;23;20453;-84
2022/04/08 05:43:32;;;;;;;7.50;1.87;;;10.20;83.90;;;;;;6191085;23;20391;-82
2022/04/08 05:45:59;;;;;;;5.23;1.90;;;10.20;84.00;;;;;;6197277;23;20406;-83
2022/04/08 05:48:26;;;;;;;9.43;2.30;;;10.30;84.10;;;;;;6201613;23;20402;-84
2022/04/08 05:50:52;;;;;;;5.60;1.87;;;10.30;83.80;;;;;;6189150;23;20422;-84
2022/04/08 05:53:20;;;;;;;9.07;2.63;;;10.30;83.40;;;;;;6189227;23;20417;-83
2022/04/08 05:55:47;;;;;;;7.00;1.80;;;10.30;84.30;;;;;;6194799;23;20406;-84
2022/04/08 05:58:14;;;;;;;4.13;1.87;;;10.30;83.70;;;;;;6196284;23;20449;-85
2022/04/08 06:00:42;;;;;;;4.93;1.57;;;10.30;84.30;;;;;;6204998;23;20432;-84
2022/04/08 06:03:08;;;;;;;8.37;1.93;;;10.30;84.70;;;;;;6210764;23;20390;-83
2022/04/08 06:05:35;;;;;;;4.47;2.57;;;10.30;84.30;;;;;;6212300;23;20402;-82
2022/04/08 06:08:04;;;;;;;5.10;1.73;;;10.30;86.00;;;;;;6212383;23;20405;-83
2022/04/08 06:10:31;;;;;;;7.00;1.57;;;10.30;86.60;;;;;;6209276;23;20430;-83
2022/04/08 06:12:58;;;;;;;8.80;3.70;;;10.40;87.30;;;;;;6211172;23;20414;-83
2022/04/08 06:15:26;;;;;;;8.17;1.83;;;10.40;88.70;;;;;;6212704;23;20445;-83
2022/04/08 06:17:55;;;;;;;13.50;2.73;;;10.20;88.20;;;;;;6208574;23;20473;-83
2022/04/08 06:20:24;;;;;;;4.33;1.70;;;10.20;89.50;;;;;;6204455;23;20453;-83
2022/04/08 06:22:51;;;;;;;5.00;2.33;;;10.00;88.80;;;;;;6198955;23;20402;-84
2022/04/08 06:25:19;;;;;;;5.60;1.70;;;9.90;90.50;;;;;;6196759;23;20520;-84
2022/04/08 06:27:55;;;;;;;4.43;1.83;;;9.80;92.00;;;;;;6196688;23;20401;-85
2022/04/08 06:30:22;;;;;;;2.60;1.77;;;9.80;91.70;;;;;;6195018;23;20433;-82
2022/04/08 06:32:49;;;;;;;3.83;2.00;;;9.80;92.40;;;;;;6195255;23;20402;-85
2022/04/08 06:35:18;;;;;;;7.00;1.53;;;9.80;92.30;;;;;;6193820;23;20417;-84
2022/04/08 06:37:44;;;;;;;5.90;2.37;;;9.90;92.60;;;;;;6193998;23;20745;-83
2022/04/08 06:40:12;;;;;;;4.77;2.00;;;10.00;92.40;;;;;;6194556;23;20432;-84
2022/04/08 06:42:39;;;;;;;7.30;1.63;;;9.90;92.70;;;;;;6200980;23;20772;-84
2022/04/08 06:45:08;;;;;;;2.83;1.40;;;9.90;92.00;;;;;;6207030;23;20436;-82
2022/04/08 06:47:45;;;;;;;3.30;1.80;;;9.90;92.80;;;;;;6195023;23;20402;-83
2022/04/08 06:50:12;;;;;;;3.90;1.90;;;10.00;91.80;;;;;;6194559;23;20791;-83
2022/04/08 06:52:40;;;;;;;4.97;2.43;;;10.00;92.00;;;;;;6195052;23;20416;-84
2022/04/08 06:55:08;;;;;;;5.83;1.77;;;9.90;92.70;;;;;;6195441;23;20406;-83
2022/04/08 06:57:35;;;;;;;2.90;1.10;;;9.90;93.40;;;;;;6194287;23;20417;-83
2022/04/08 07:00:03;;;;;;;8.10;1.93;;;9.80;92.80;;;;;;6199492;23;20446;-84
2022/04/08 07:02:30;;;;;;;2.90;1.30;;;9.70;92.50;;;;;;6194793;23;20478;-83
2022/04/08 07:04:56;;;;;;;2.77;1.90;;;9.60;93.50;;;;;;6195653;23;20405;-77
2022/04/08 07:07:27;;;;;;;4.97;1.63;;;9.50;93.80;;;;;;6202127;23;20405;-78
2022/04/08 07:09:56;;;;;;;4.80;1.77;;;9.30;95.00;;;;;;6201150;23;20430;-78
2022/04/08 07:12:23;;;;;;;4.03;1.70;;;9.20;96.10;;;;;;6193880;23;20398;-84
2022/04/08 07:14:50;;;;;;;5.30;1.47;;;9.00;97.00;;;;;;6193303;23;20394;-84
2022/04/08 07:17:18;;;;;;;6.00;1.70;;;8.90;97.30;;;;;;6194105;23;20417;-84
2022/04/08 07:19:44;;;;;;;7.90;2.13;;;8.90;98.30;;;;;;6194225;23;20449;-84
2022/04/08 07:22:11;;;;;;;4.10;1.67;;;8.90;98.70;;;;;;6194775;23;20402;-83
2022/04/08 07:24:38;;;;;;;2.33;1.90;;;8.90;98.80;;;;;;6194657;23;20435;-83
2022/04/08 07:27:07;;;;;;;3.07;1.60;;;8.80;98.70;;;;;;6195711;23;20406;-83
2022/04/08 07:29:33;;;;;;;5.27;2.20;;;8.70;99.40;;;;;;6196432;23;20398;-82
2022/04/08 07:32:00;;;;;;;5.10;1.40;;;8.60;99.90;;;;;;6195923;23;20406;-83
2022/04/08 07:34:27;;;;;;;4.53;1.90;;;8.40;99.90;;;;;;6201406;23;20406;-84
2022/04/08 07:36:53;;;;;;;5.47;2.00;;;8.30;99.90;;;;;;6194930;23;20406;-83
2022/04/08 07:39:20;;;;;;;3.23;1.70;;;8.30;99.90;;;;;;6197782;23;20745;-84
2022/04/08 07:41:47;;;;;;;3.10;1.60;;;8.20;99.90;;;;;;6193737;23;20935;-83
2022/04/08 07:44:15;;;;;;;3.17;2.47;;;8.20;99.90;;;;;;6194765;23;20777;-83
2022/04/08 07:46:41;;;;;;;4.97;1.90;;;8.20;99.90;;;;;;6199139;23;20406;-84
2022/04/08 07:49:09;;;;;;;4.20;1.93;;;8.30;99.90;;;;;;6199508;23;20416;-83
2022/04/08 07:51:35;;;;;;;3.37;1.83;;;8.20;99.90;;;;;;6195658;23;20429;-84
2022/04/08 07:54:02;;;;;;;5.57;2.53;;;8.20;99.90;;;;;;6201136;23;20456;-83
2022/04/08 07:56:33;;;;;;;5.27;1.77;;;8.30;99.90;;;;;;6210074;23;20403;-83
2022/04/08 07:59:00;;;;;;;4.80;1.63;;;8.40;99.90;;;;;;6193969;23;20508;-84
2022/04/08 08:01:28;;;;;;;4.07;3.00;;;8.40;99.90;;;;;;6193914;23;20498;-82
2022/04/08 08:03:54;;;;;;;2.30;1.53;;;8.50;99.90;;;;;;6194968;23;20485;-83
2022/04/08 08:06:21;;;;;;;1.30;1.07;;;8.60;99.90;;;;;;6205012;23;20390;-83
2022/04/08 08:08:50;;;;;;;1.77;1.50;;;8.60;99.90;;;;;;6211082;23;20390;-83
2022/04/08 08:11:18;;;;;;;5.07;3.43;;;8.60;99.90;;;;;;6192913;23;20426;-84
2022/04/08 08:13:45;;;;;;;3.20;1.40;;;8.70;99.90;;;;;;6193746;23;20402;-84
2022/04/08 08:16:12;;;;;;;2.53;1.30;;;9.00;99.90;;;;;;6191448;23;20424;-84
2022/04/08 08:18:40;;;;;;;3.47;1.60;;;9.00;99.90;;;;;;6194080;23;20446;-83
2022/04/08 08:21:07;;;;;;;2.93;1.50;;;8.90;99.90;;;;;;6193509;23;20965;-83
2022/04/08 08:23:33;;;;;;;3.73;1.57;;;8.90;99.90;;;;;;6191918;23;20432;-84
2022/04/08 08:26:00;;;;;;;11.93;1.93;;;8.80;99.90;;;;;;6193691;23;20413;-84
2022/04/08 08:28:27;;;;;;;3.60;1.40;;;8.80;99.90;;;;;;6211710;23;20441;-83
2022/04/08 08:30:54;;;;;;;2.83;1.27;;;9.00;99.90;;;;;;6205098;23;20430;-85
2022/04/08 08:33:21;;;;;;;5.50;2.00;;;8.90;99.90;;;;;;6204921;23;20420;-83
2022/04/08 08:35:49;;;;;;;2.73;1.90;;;8.90;99.90;;;;;;6201925;23;20406;-85
2022/04/08 08:38:15;;;;;;;1.40;1.20;;;8.80;99.90;;;;;;6194573;23;20410;-84
2022/04/08 08:40:45;;;;;;;1.07;0.90;;;8.80;99.90;;;;;;6194954;23;20449;-83
2022/04/08 08:43:17;;;;;;;2.70;1.47;;;8.90;99.90;;;;;;6201507;23;20420;-82
2022/04/08 08:45:45;;;;;;;3.20;1.30;;;9.10;99.90;;;;;;6199811;23;20397;-83
2022/04/08 08:48:15;;;;;;;2.50;1.40;;;9.20;99.90;;;;;;6195437;23;20410;-83
2022/04/08 08:50:46;;;;;;;2.07;1.00;;;9.00;99.90;;;;;;6192916;23;20422;-83
2022/04/08 08:53:18;;;;;;;1.80;1.20;;;9.10;99.90;;;;;;6198165;23;20445;-83
2022/04/08 08:55:45;;;;;;;2.37;0.87;;;9.00;99.90;;;;;;6194389;23;20816;-83
2022/04/08 08:58:12;;;;;;;1.77;1.03;;;9.20;99.90;;;;;;6193310;23;20408;-84
2022/04/08 09:00:38;;;;;;;2.73;1.33;;;9.20;99.90;;;;;;6194378;23;20446;-83
2022/04/08 09:03:05;;;;;;;1.40;0.83;;;9.10;99.90;;;;;;6191834;23;20444;-84
2022/04/08 09:05:41;;;;;;;2.90;1.10;;;9.10;99.90;;;;;;6193561;23;20406;-84
2022/04/08 09:08:08;;;;;;;2.30;0.80;;;9.30;99.90;;;;;;6194623;23;20770;-84
2022/04/08 09:10:38;;;;;;;1.43;0.90;;;9.40;99.90;;;;;;6199695;23;20422;-85
2022/04/08 09:13:07;;;;;;;4.07;1.73;;;9.40;99.90;;;;;;6202874;23;20421;-84
2022/04/08 09:15:37;;;;;;;3.07;2.13;;;9.40;99.90;;;;;;6196351;23;20494;-83
2022/04/08 09:18:13;;;;;;;2.10;1.27;;;9.40;99.90;;;;;;6198572;23;20410;-82
2022/04/08 09:20:41;;;;;;;2.37;1.20;;;9.40;99.90;;;;;;6202022;23;20947;-83
2022/04/08 09:23:09;;;;;;;2.37;1.20;;;9.50;99.90;;;;;;6196787;23;20406;-84
2022/04/08 09:25:39;;;;;;;3.00;1.20;;;9.50;99.90;;;;;;6198543;23;20406;-83
2022/04/08 09:28:09;;;;;;;3.33;0.90;;;9.50;99.90;;;;;;6203713;23;20421;-84
2022/04/08 09:30:36;;;;;;;2.33;1.03;;;9.40;99.90;;;;;;6197508;23;20537;-83
2022/04/08 09:33:18;;;;;;;1.77;1.10;;;9.30;99.90;;;;;;6197265;23;20409;-83
2022/04/08 09:35:46;;;;;;;1.63;1.27;;;9.30;99.90;;;;;;6195234;23;20489;-83
2022/04/08 09:38:17;;;;;;;6.03;1.63;;;9.10;99.90;;;;;;6194404;23;20489;-84
2022/04/08 09:40:47;;;;;;;4.10;1.07;;;9.00;99.90;;;;;;6197888;23;20473;-83
2022/04/08 09:43:14;;;;;;;3.20;1.20;;;9.00;99.90;;;;;;6208465;23;20421;-84
2022/04/08 09:45:41;;;;;;;2.93;1.57;;;9.00;99.90;;;;;;6205202;23;20412;-84
2022/04/08 09:48:09;;;;;;;3.03;1.23;;;9.00;99.90;;;;;;6196417;23;20421;-84
2022/04/08 09:50:39;;;;;;;1.93;1.10;;;9.10;99.90;;;;;;6195753;23;20418;-83
2022/04/08 09:53:07;;;;;;;1.30;1.13;;;9.00;99.90;;;;;;6195257;23;20379;-84
2022/04/08 09:55:36;;;;;;;1.83;1.20;;;8.90;99.90;;;;;;6196035;23;20421;-84
2022/04/08 09:58:08;;;;;;;1.97;1.20;;;8.90;99.90;;;;;;6195030;23;20485;-84
2022/04/08 10:00:36;;;;;;;3.30;1.10;;;8.80;99.90;;;;;;6200159;23;20456;-84
2022/04/08 10:03:03;;;;;;;1.57;1.20;;;8.80;99.90;;;;;;6211980;23;20382;-84
2022/04/08 10:05:31;;;;;;;2.57;1.13;;;8.90;99.90;;;;;;6213607;23;20483;-84
2022/04/08 10:07:58;;;;;;;3.00;1.13;;;8.90;99.90;;;;;;6212867;23;20426;-83
2022/04/08 10:10:30;;;;;;;1.43;1.17;;;8.90;99.90;;;;;;6210289;23;20504;-85
2022/04/08 10:13:14;;;;;;;1.73;1.30;;;9.00;99.90;;;;;;6201606;23;20402;-85
2022/04/08 10:15:44;;;;;;;2.20;1.60;;;9.10;99.90;;;;;;6194742;23;20477;-85
2022/04/08 10:18:11;;;;;;;2.40;1.20;;;9.20;99.90;;;;;;6196514;23;20397;-86
2022/04/08 10:20:39;;;;;;;4.33;1.10;;;9.30;99.90;;;;;;6197034;23;20460;-85
2022/04/08 10:23:08;;;;;;;1.37;0.80;;;9.30;99.90;;;;;;6196018;23;20881;-84
2022/04/08 10:25:43;;;;;;;3.90;1.43;;;9.40;99.90;;;;;;6194332;23;20449;-88
2022/04/08 10:28:12;;;;;;;1.63;0.97;;;9.40;99.90;;;;;;6202946;23;20413;-85
2022/04/08 11:01:27;;;;;;;1.33;0.93;;;10.00;99.90;;;;;;5891472;23;20449;-84
2022/04/08 11:03:55;;;;;;;1.50;1.13;;;10.10;99.90;;;;;;6075700;23;20413;-86
2022/04/08 11:06:24;;;;;;;1.20;0.90;;;10.10;99.90;;;;;;6119169;23;20418;-84
2022/04/08 11:08:51;;;;;;;1.23;1.10;;;10.10;99.90;;;;;;6164152;23;20434;-87
2022/04/08 11:11:28;;;;;;;1.73;1.30;;;10.00;99.90;;;;;;6166487;23;20989;-86
2022/04/08 11:13:57;;;;;;;3.13;2.83;;;9.90;99.90;;;;;;6166088;23;20414;-84
2022/04/08 11:16:28;;;;;;;0.90;0.80;;;9.90;99.90;;;;;;6163024;23;20387;-86
2022/04/08 11:18:55;;;;;;;1.17;1.07;;;9.80;99.90;;;;;;6162739;23;20415;-85
2022/04/08 11:21:23;;;;;;;1.10;0.90;;;9.70;99.90;;;;;;6166938;23;20442;-84
2022/04/08 11:23:58;;;;;;;1.40;1.30;;;9.50;99.90;;;;;;6171671;23;20422;-87
2022/04/08 11:26:25;;;;;;;3.13;2.83;;;9.40;99.90;;;;;;6171967;23;20390;-84
2022/04/08 11:28:52;;;;;;;1.90;1.37;;;9.40;99.90;;;;;;6183246;23;20399;-84
2022/04/08 11:31:20;;;;;;;1.57;0.93;;;9.30;99.90;;;;;;6179448;23;20429;-85
2022/04/08 11:33:51;;;;;;;1.10;1.00;;;9.10;99.90;;;;;;6175650;23;20391;-85
2022/04/08 11:36:24;;;;;;;2.57;0.93;;;9.10;99.90;;;;;;6174558;23;20407;-86
2022/04/08 11:38:56;;;;;;;0.80;0.70;;;9.10;99.90;;;;;;6170256;23;20510;-87
2022/04/08 11:41:27;;;;;;;1.10;0.87;;;9.00;99.90;;;;;;6169064;23;20446;-87
2022/04/08 11:44:04;;;;;;;1.17;1.00;;;9.10;99.90;;;;;;6168722;23;20410;-85
2022/04/08 11:47:03;;;;;;;;;;;;;;;;;;;;;
2022/04/08 11:52:25;;;;;;;2.13;1.63;;;9.40;99.90;;;;;;6162182;23;20418;-84
2022/04/08 11:55:03;;;;;;;2.80;1.60;;;9.30;99.90;;;;;;6181656;23;20488;-85
2022/04/08 11:57:34;;;;;;;1.10;0.90;;;9.20;99.90;;;;;;6192455;23;20370;-85
2022/04/08 12:03:02;;;;;;;3.50;2.30;;;8.90;99.90;;;;;;6191194;23;20457;-86
2022/04/08 12:05:34;;;;;;;1.83;1.50;;;8.90;99.90;;;;;;6193773;23;20722;-85
2022/04/08 12:08:03;;;;;;;3.10;1.40;;;9.00;99.90;;;;;;6193923;23;20792;-85
2022/04/08 12:10:34;;;;;;;2.33;1.90;;;9.00;99.90;;;;;;6190052;23;20426;-83
2022/04/08 12:13:30;;;;;;;3.10;2.30;;;9.00;99.90;;;;;;6189410;23;20473;-86
2022/04/08 12:16:08;;;;;;;1.97;1.30;;;9.00;99.90;;;;;;6190063;23;20406;-85
2022/04/08 12:18:40;;;;;;;2.57;1.80;;;9.00;99.90;;;;;;6190208;23;20740;-86
2022/04/08 12:21:13;;;;;;;3.67;2.20;;;9.00;99.90;;;;;;6189561;23;20445;-86
2022/04/08 12:23:41;;;;;;;1.80;1.60;;;9.00;99.90;;;;;;6189486;23;20406;-85
2022/04/08 12:26:11;;;;;;;2.40;1.50;;;9.10;99.90;;;;;;6189828;23;20390;-86
2022/04/08 12:28:38;;;;;;;3.33;2.37;;;9.10;99.90;;;;;;6190777;23;20406;-85
2022/04/08 12:31:12;;;;;;;2.60;2.10;;;9.00;99.90;;;;;;6194823;23;21007;-84
2022/04/08 12:33:39;;;;;;;1.30;1.13;;;9.00;99.90;;;;;;6187469;23;20414;-85
2022/04/08 12:36:10;;;;;;;3.80;1.83;;;8.90;99.90;;;;;;6197856;23;20474;-85
2022/04/08 12:38:38;;;;;;;2.27;1.73;;;8.90;99.90;;;;;;6207533;23;20425;-85
2022/04/08 12:41:05;;;;;;;8.13;3.50;;;8.90;99.90;;;;;;6195466;23;20464;-86
2022/04/08 12:43:32;;;;;;;2.20;1.57;;;8.90;99.90;;;;;;6191308;23;20390;-86
2022/04/08 12:46:02;;;;;;;2.60;1.73;;;9.00;99.90;;;;;;6192838;23;20414;-86
2022/04/08 12:48:34;;;;;;;1.30;1.20;;;8.90;99.90;;;;;;6193035;23;20430;-85
2022/04/08 12:51:01;;;;;;;2.27;1.50;;;8.90;99.90;;;;;;6196004;23;20901;-85
2022/04/08 12:53:31;;;;;;;2.10;1.57;;;8.80;99.90;;;;;;6190532;23;20497;-86
2022/04/08 12:55:58;;;;;;;1.67;1.57;;;8.70;99.90;;;;;;6191833;23;20398;-85
2022/04/08 12:58:35;;;;;;;2.53;1.57;;;8.70;99.90;;;;;;6191686;23;20490;-84
2022/04/08 13:01:04;;;;;;;1.40;1.30;;;8.80;99.90;;;;;;6192325;23;20455;-85
2022/04/08 13:03:39;;;;;;;2.60;1.57;;;8.80;99.90;;;;;;6209695;23;20433;-85
2022/04/08 13:06:10;;;;;;;3.60;1.67;;;8.80;99.90;;;;;;6201891;23;20397;-86
2022/04/08 13:08:47;;;;;;;3.40;2.73;;;8.80;99.90;;;;;;6211525;23;20389;-85
2022/04/08 13:11:14;;;;;;;2.30;1.77;;;8.90;99.90;;;;;;6208059;23;20429;-86
2022/04/08 13:13:41;;;;;;;2.40;2.00;;;9.00;99.90;;;;;;6204673;23;20414;-84
2022/04/08 13:16:08;;;;;;;2.97;2.00;;;9.00;99.90;;;;;;6198452;23;20398;-86
2022/04/08 13:18:34;;;;;;;1.67;1.57;;;9.00;99.90;;;;;;6199544;23;20406;-86
2022/04/08 13:21:01;;;;;;;2.50;1.77;;;8.80;99.90;;;;;;6191510;23;20448;-85
2022/04/08 13:23:28;;;;;;;4.50;2.97;;;8.70;99.90;;;;;;6190966;23;20406;-86
2022/04/08 13:25:56;;;;;;;3.20;2.30;;;8.70;99.90;;;;;;6193288;23;20413;-87
2022/04/08 13:28:50;;;;;;;2.60;2.40;;;8.70;99.90;;;;;;6190190;23;20413;-86
2022/04/08 13:31:43;;;;;;;3.13;2.57;;;8.80;99.90;;;;;;6197652;23;20420;-86
2022/04/08 13:37:11;;;;;;;3.93;2.70;;;8.90;99.90;;;;;;6185151;23;20476;-85
2022/04/08 13:39:38;;;;;;;2.40;2.20;;;8.80;99.90;;;;;;6188989;23;20386;-86